createdAt,value
2023-05-08T00:01:41.384Z,88
2023-05-08T00:05:06.624Z,88
2023-05-08T00:08:31.691Z,88
2023-05-08T00:11:56.867Z,87
2023-05-08T00:15:22.001Z,87
2023-05-08T00:18:47.229Z,87
2023-05-08T00:22:12.345Z,86
2023-05-08T00:25:37.504Z,86
2023-05-08T00:29:03.333Z,86
2023-05-08T00:32:27.873Z,86
2023-05-08T00:35:53.022Z,86
2023-05-08T00:39:18.115Z,85
2023-05-08T00:42:43.314Z,85
2023-05-08T00:46:08.446Z,85
2023-05-08T00:49:33.536Z,85
2023-05-08T00:52:58.718Z,85
2023-05-08T00:56:23.855Z,85
2023-05-08T00:59:49.018Z,85
2023-05-08T01:03:14.257Z,85
2023-05-08T01:06:39.307Z,84
2023-05-08T01:10:04.462Z,84
2023-05-08T01:13:29.570Z,84
2023-05-08T01:16:54.722Z,84
2023-05-08T01:20:19.903Z,84
2023-05-08T01:23:45.043Z,84
2023-05-08T01:27:10.214Z,85
2023-05-08T01:30:35.331Z,85
2023-05-08T01:34:00.561Z,85
2023-05-08T01:37:25.606Z,85
2023-05-08T01:40:50.752Z,85
2023-05-08T01:44:15.936Z,85
2023-05-08T01:47:41.076Z,85
2023-05-08T01:51:06.169Z,84
2023-05-08T01:54:31.369Z,85
2023-05-08T01:57:56.510Z,84
2023-05-08T02:01:21.731Z,84
2023-05-08T02:04:46.861Z,84
2023-05-08T02:08:11.986Z,84
2023-05-08T02:11:37.119Z,85
2023-05-08T02:15:02.282Z,85
2023-05-08T02:18:27.448Z,85
2023-05-08T02:21:52.542Z,85
2023-05-08T02:25:17.670Z,85
2023-05-08T02:28:42.804Z,85
2023-05-08T02:32:08.058Z,85
2023-05-08T02:35:33.105Z,85
2023-05-08T02:38:58.269Z,86
2023-05-08T02:42:23.403Z,85
2023-05-08T02:45:48.610Z,86
2023-05-08T02:49:13.738Z,86
2023-05-08T02:52:38.868Z,85
2023-05-08T02:56:03.986Z,85
2023-05-08T02:59:29.132Z,85
2023-05-08T03:02:54.339Z,86
2023-05-08T03:06:19.459Z,86
2023-05-08T03:09:44.653Z,86
2023-05-08T03:13:09.779Z,85
2023-05-08T03:16:34.929Z,86
2023-05-08T03:20:00.072Z,86
2023-05-08T03:23:25.211Z,86
2023-05-08T03:26:50.376Z,86
2023-05-08T03:30:15.669Z,85
2023-05-08T03:33:40.599Z,85
2023-05-08T03:37:05.741Z,85
2023-05-08T03:40:30.930Z,85
2023-05-08T03:43:56.103Z,85
2023-05-08T03:47:21.209Z,84
2023-05-08T03:50:46.344Z,85
2023-05-08T03:54:11.485Z,85
2023-05-08T03:57:36.608Z,85
2023-05-08T04:01:01.776Z,84
2023-05-08T04:04:26.955Z,84
2023-05-08T04:07:52.132Z,84
2023-05-08T04:11:17.299Z,84
2023-05-08T04:14:42.432Z,84
2023-05-08T04:18:07.675Z,84
2023-05-08T04:21:32.780Z,84
2023-05-08T04:24:57.929Z,84
2023-05-08T04:28:23.041Z,85
2023-05-08T04:31:48.279Z,84
2023-05-08T04:35:13.695Z,84
2023-05-08T04:38:38.642Z,84
2023-05-08T04:42:03.907Z,85
2023-05-08T04:45:29.056Z,85
2023-05-08T04:48:54.310Z,86
2023-05-08T04:52:19.498Z,85
2023-05-08T04:55:44.663Z,85
2023-05-08T04:59:09.795Z,85
2023-05-08T05:02:34.976Z,85
2023-05-08T05:06:00.074Z,85
2023-05-08T05:09:25.324Z,85
2023-05-08T05:12:50.509Z,85
2023-05-08T05:16:15.693Z,85
2023-05-08T05:19:40.744Z,85
2023-05-08T05:23:05.936Z,85
2023-05-08T05:26:31.231Z,85
2023-05-08T05:29:56.365Z,85
2023-05-08T05:33:21.521Z,86
2023-05-08T05:36:46.637Z,85
2023-05-08T05:40:11.849Z,85
2023-05-08T05:43:37.035Z,84
2023-05-08T05:47:02.222Z,84
2023-05-08T05:50:27.403Z,83
2023-05-08T05:53:52.665Z,83
2023-05-08T05:57:17.849Z,83
2023-05-08T06:00:43.056Z,84
2023-05-08T06:04:08.421Z,83
2023-05-08T06:07:33.569Z,83
2023-05-08T06:10:58.763Z,83
2023-05-08T06:14:23.943Z,82
2023-05-08T06:17:49.277Z,82
2023-05-08T06:21:14.361Z,81
2023-05-08T06:24:39.576Z,81
2023-05-08T06:28:04.790Z,80
2023-05-08T06:31:30.036Z,81
2023-05-08T06:34:55.161Z,80
2023-05-08T06:38:20.387Z,79
2023-05-08T06:41:45.585Z,80
2023-05-08T06:45:10.935Z,81
2023-05-08T06:48:36.143Z,79
2023-05-08T06:52:01.341Z,79
2023-05-08T06:55:26.510Z,79
2023-05-08T06:59:00.856Z,78
2023-05-08T07:02:16.912Z,78
2023-05-08T07:05:42.135Z,78
2023-05-08T07:09:07.323Z,77
2023-05-08T07:12:32.462Z,78
2023-05-08T07:15:57.708Z,78
2023-05-08T07:19:22.812Z,77
2023-05-08T07:22:47.985Z,77
2023-05-08T07:26:13.280Z,77
2023-05-08T07:29:38.386Z,77
2023-05-08T07:33:03.668Z,76
2023-05-08T07:36:28.796Z,76
2023-05-08T07:39:54.009Z,77
2023-05-08T07:43:39.101Z,76
2023-05-08T07:47:04.260Z,77
2023-05-08T07:50:29.488Z,75
2023-05-08T07:53:55.262Z,75
2023-05-08T07:57:20.441Z,74
2023-05-08T08:00:45.637Z,75
2023-05-08T08:04:11.787Z,73
2023-05-08T08:07:36.156Z,72
2023-05-08T08:11:03.633Z,73
2023-05-08T08:14:26.549Z,72
2023-05-08T08:17:51.917Z,72
2023-05-08T08:21:16.949Z,72
2023-05-08T08:24:42.156Z,70
2023-05-08T08:28:07.348Z,70
2023-05-08T08:31:32.617Z,69
2023-05-08T08:34:57.836Z,69
2023-05-08T08:38:22.873Z,71
2023-05-08T08:41:48.050Z,70
2023-05-08T08:45:13.534Z,68
2023-05-08T08:48:38.409Z,70
2023-05-08T08:52:03.668Z,70
2023-05-08T08:55:28.765Z,70
2023-05-08T08:58:53.942Z,69
2023-05-08T09:02:19.204Z,69
2023-05-08T09:05:44.380Z,69
2023-05-08T09:09:09.632Z,70
2023-05-08T09:12:34.672Z,69
2023-05-08T09:15:59.906Z,67
2023-05-08T09:19:27.148Z,67
2023-05-08T09:22:50.702Z,68
2023-05-08T09:26:16.092Z,66
2023-05-08T09:29:41.117Z,64
2023-05-08T09:33:06.935Z,66
2023-05-08T09:36:32.276Z,65
2023-05-08T09:39:57.404Z,66
2023-05-08T09:43:22.691Z,63
2023-05-08T09:46:47.856Z,66
2023-05-08T09:50:13.113Z,65
2023-05-08T09:53:38.166Z,64
2023-05-08T09:57:03.392Z,64
2023-05-08T10:00:28.691Z,64
2023-05-08T10:03:53.683Z,66
2023-05-08T10:07:18.848Z,61
2023-05-08T10:10:44.053Z,64
2023-05-08T10:14:09.203Z,61
2023-05-08T10:17:34.474Z,63
2023-05-08T10:20:59.531Z,61
2023-05-08T10:24:24.758Z,63
2023-05-08T10:27:49.917Z,62
2023-05-08T10:31:15.163Z,64
2023-05-08T10:34:40.393Z,63
2023-05-08T10:38:05.512Z,62
2023-05-08T10:41:30.664Z,59
2023-05-08T10:44:55.810Z,63
2023-05-08T10:48:20.989Z,62
2023-05-08T10:51:46.165Z,61
2023-05-08T10:55:11.258Z,60
2023-05-08T10:58:36.471Z,63
2023-05-08T11:02:01.614Z,64
2023-05-08T11:05:26.733Z,64
2023-05-08T11:08:51.940Z,62
2023-05-08T11:12:17.081Z,60
2023-05-08T11:15:42.337Z,61
2023-05-08T11:19:07.486Z,63
2023-05-08T11:22:32.645Z,58
2023-05-08T11:25:57.847Z,60
2023-05-08T11:29:23.001Z,63
2023-05-08T11:32:48.196Z,59
2023-05-08T11:36:13.353Z,59
2023-05-08T11:39:39.297Z,56
2023-05-08T11:43:04.545Z,60
2023-05-08T11:46:29.763Z,56
2023-05-08T11:49:54.931Z,59
2023-05-08T11:53:20.152Z,56
2023-05-08T11:56:47.020Z,57
2023-05-08T12:00:10.713Z,58
2023-05-08T12:03:35.902Z,59
2023-05-08T12:07:00.926Z,55
2023-05-08T12:10:26.129Z,57
2023-05-08T12:13:51.310Z,58
2023-05-08T12:17:16.572Z,55
2023-05-08T12:20:41.646Z,56
2023-05-08T12:24:06.890Z,56
2023-05-08T12:27:32.043Z,57
2023-05-08T12:30:57.223Z,55
2023-05-08T12:34:22.463Z,54
2023-05-08T12:37:47.620Z,54
2023-05-08T12:41:12.807Z,56
2023-05-08T12:44:38.006Z,56
2023-05-08T12:48:03.232Z,53
2023-05-08T12:51:28.739Z,57
2023-05-08T12:54:53.766Z,55
2023-05-08T12:58:19.035Z,56
2023-05-08T13:01:44.214Z,53
2023-05-08T13:05:09.490Z,55
2023-05-08T13:08:34.805Z,57
2023-05-08T13:11:59.952Z,52
2023-05-08T13:15:25.181Z,56
2023-05-08T13:18:50.452Z,56
2023-05-08T13:22:15.631Z,57
2023-05-08T13:25:41.056Z,53
2023-05-08T13:29:06.146Z,52
2023-05-08T13:32:31.435Z,53
2023-05-08T13:35:56.621Z,56
2023-05-08T13:39:21.884Z,50
2023-05-08T13:42:47.584Z,52
2023-05-08T13:46:12.661Z,49
2023-05-08T13:49:37.884Z,52
2023-05-08T13:53:03.073Z,48
2023-05-08T13:56:28.276Z,49
2023-05-08T13:59:53.586Z,52
2023-05-08T14:03:18.756Z,52
2023-05-08T14:06:43.936Z,48
2023-05-08T14:10:09.111Z,52
2023-05-08T14:13:34.300Z,50
2023-05-08T14:16:59.667Z,51
2023-05-08T14:20:24.830Z,52
2023-05-08T14:23:50.033Z,51
2023-05-08T14:27:15.244Z,50
2023-05-08T14:30:40.464Z,51
2023-05-08T14:34:05.770Z,52
2023-05-08T14:37:30.857Z,53
2023-05-08T14:40:56.050Z,53
2023-05-08T14:44:21.332Z,53
2023-05-08T14:47:46.598Z,52
2023-05-08T14:51:11.856Z,52
2023-05-08T14:54:36.996Z,52
2023-05-08T14:58:02.128Z,51
2023-05-08T15:01:27.378Z,53
2023-05-08T15:04:52.519Z,54
2023-05-08T15:08:17.880Z,52
2023-05-08T15:11:42.938Z,54
2023-05-08T15:46:35.127Z,50
2023-05-08T15:50:00.203Z,50
2023-05-08T15:53:25.423Z,50
2023-05-08T15:56:50.589Z,48
2023-05-08T16:00:15.809Z,48
2023-05-08T16:03:41.111Z,47
2023-05-08T16:07:06.170Z,48
2023-05-08T16:10:31.405Z,46
2023-05-08T16:13:56.602Z,48
2023-05-08T16:17:21.789Z,48
2023-05-08T16:20:47.035Z,48
2023-05-08T16:24:13.927Z,49
2023-05-08T16:27:39.143Z,48
2023-05-08T16:31:04.387Z,48
2023-05-08T16:34:29.538Z,50
2023-05-08T16:37:54.918Z,53
2023-05-08T16:41:19.972Z,51
2023-05-08T16:44:45.243Z,52
2023-05-08T16:48:10.489Z,52
2023-05-08T16:51:35.688Z,52
2023-05-08T16:55:01.035Z,53
2023-05-08T16:58:26.129Z,53
2023-05-08T17:01:51.405Z,53
2023-05-08T17:05:16.619Z,54
2023-05-08T17:08:41.807Z,54
2023-05-08T17:12:07.152Z,55
2023-05-08T17:15:32.219Z,54
2023-05-08T17:18:57.421Z,56
2023-05-08T17:22:22.821Z,55
2023-05-08T17:25:48.016Z,53
2023-05-08T17:29:13.372Z,54
2023-05-08T17:32:38.465Z,55
2023-05-08T17:36:03.974Z,55
2023-05-08T17:39:29.185Z,55
2023-05-08T17:42:54.357Z,55
2023-05-08T17:46:19.716Z,57
2023-05-08T17:49:44.700Z,56
2023-05-08T17:53:09.911Z,57
2023-05-08T17:56:35.100Z,58
2023-05-08T18:00:01.233Z,57
2023-05-08T18:03:26.538Z,57
2023-05-08T18:06:51.568Z,59
2023-05-08T18:10:16.893Z,56
2023-05-08T18:13:42.021Z,56
2023-05-08T18:17:07.264Z,58
2023-05-08T18:20:32.562Z,59
2023-05-08T18:23:57.627Z,63
2023-05-08T18:27:22.815Z,61
2023-05-08T18:30:48.019Z,63
2023-05-08T18:34:13.217Z,64
2023-05-08T18:37:38.493Z,66
2023-05-08T18:41:03.546Z,66
2023-05-08T18:44:28.822Z,62
2023-05-08T18:47:54.119Z,66
2023-05-08T18:51:19.232Z,63
2023-05-08T18:54:44.522Z,64
2023-05-08T18:58:09.589Z,61
2023-05-08T19:01:34.751Z,62
2023-05-08T19:04:59.972Z,62
2023-05-08T19:08:25.121Z,62
2023-05-08T19:11:50.402Z,64
2023-05-08T19:15:15.643Z,63
2023-05-08T19:18:40.602Z,64
2023-05-08T19:22:05.781Z,64
2023-05-08T19:25:30.987Z,63
2023-05-08T19:28:56.309Z,63
2023-05-08T19:32:21.373Z,63
2023-05-08T19:35:46.544Z,63
2023-05-08T19:39:11.703Z,63
2023-05-08T19:42:37.837Z,65
2023-05-08T19:46:03.155Z,63
2023-05-08T19:49:28.176Z,63
2023-05-08T19:52:53.349Z,63
2023-05-08T19:56:18.526Z,63
2023-05-08T19:59:43.686Z,63
2023-05-08T20:03:09.105Z,64
2023-05-08T20:06:34.039Z,66
2023-05-08T20:09:59.227Z,67
2023-05-08T20:13:24.462Z,67
2023-05-08T20:16:49.549Z,66
2023-05-08T20:20:14.995Z,67
2023-05-08T20:23:39.857Z,66
2023-05-08T20:27:05.108Z,66
2023-05-08T20:30:30.287Z,70
2023-05-08T20:33:55.416Z,69
2023-05-08T20:37:20.728Z,70
2023-05-08T20:40:45.793Z,67
2023-05-08T20:44:10.935Z,67
2023-05-08T20:47:36.150Z,66
2023-05-08T20:51:01.260Z,65
2023-05-08T20:54:26.559Z,65
2023-05-08T20:57:51.586Z,66
2023-05-08T21:01:18.567Z,65
2023-05-08T21:04:41.947Z,65
2023-05-08T21:08:07.938Z,65
2023-05-08T21:11:33.208Z,66
2023-05-08T21:14:58.232Z,67
2023-05-08T21:18:23.377Z,67
2023-05-08T21:21:48.511Z,66
2023-05-08T21:25:14.606Z,68
2023-05-08T21:28:38.960Z,71
2023-05-08T21:32:03.977Z,71
2023-05-08T21:35:29.113Z,70
2023-05-08T21:38:54.304Z,69
2023-05-08T21:42:19.451Z,66
2023-05-08T21:45:44.722Z,66
2023-05-08T21:49:09.721Z,66
2023-05-08T21:52:34.890Z,67
2023-05-08T21:56:00.039Z,69
2023-05-08T21:59:25.195Z,67
2023-05-08T22:02:50.503Z,68
2023-05-08T22:06:15.500Z,69
2023-05-08T22:09:40.661Z,70
2023-05-08T22:13:05.852Z,70
2023-05-08T22:16:30.985Z,69
2023-05-08T22:19:56.260Z,68
2023-05-08T22:23:21.255Z,67
2023-05-08T22:26:46.433Z,68
2023-05-08T22:30:11.615Z,70
2023-05-08T22:33:36.786Z,71
2023-05-08T22:37:02.061Z,70
2023-05-08T22:40:27.110Z,71
2023-05-08T22:43:52.253Z,71
2023-05-08T22:47:17.381Z,71
2023-05-08T22:50:42.512Z,71
2023-05-08T22:54:07.795Z,71
2023-05-08T22:57:32.825Z,70
2023-05-08T23:00:57.976Z,70
2023-05-08T23:04:23.131Z,70
2023-05-08T23:07:48.252Z,70
2023-05-08T23:11:13.491Z,69
2023-05-08T23:14:38.515Z,69
2023-05-08T23:18:03.696Z,70
2023-05-08T23:21:28.839Z,70
2023-05-08T23:24:53.999Z,71
2023-05-08T23:28:19.259Z,71
2023-05-08T23:31:44.347Z,71
2023-05-08T23:35:09.460Z,72
2023-05-08T23:38:34.579Z,71
2023-05-08T23:41:59.737Z,70
2023-05-08T23:45:24.985Z,71
2023-05-08T23:48:50.056Z,72
2023-05-08T23:52:15.198Z,72
2023-05-08T23:55:40.349Z,73
2023-05-08T23:59:05.486Z,72
